createdAt,value
2022-08-23T00:01:39.171Z,26.40
2022-08-23T00:04:32.143Z,26.40
2022-08-23T00:07:25.032Z,26.30
2022-08-23T00:10:15.754Z,26.30
2022-08-23T00:13:04.283Z,26.30
2022-08-23T00:15:53.213Z,26.30
2022-08-23T00:18:41.585Z,26.30
2022-08-23T00:21:38.378Z,26.30
2022-08-23T00:24:28.162Z,26.30
2022-08-23T00:27:18.001Z,26.20
2022-08-23T00:30:09.316Z,26.20
2022-08-23T00:32:58.100Z,26.20
2022-08-23T00:35:46.769Z,26.10
2022-08-23T00:38:35.348Z,26.10
2022-08-23T00:41:25.170Z,26.10
2022-08-23T00:44:35.241Z,26.00
2022-08-23T00:47:41.719Z,26.00
2022-08-23T00:50:35.040Z,26.00
2022-08-23T00:53:26.277Z,26.00
2022-08-23T00:56:15.947Z,25.90
2022-08-23T00:59:06.058Z,25.90
2022-08-23T01:01:54.601Z,25.90
2022-08-23T01:04:45.425Z,25.90
2022-08-23T01:07:42.422Z,25.80
2022-08-23T01:10:33.382Z,25.80
2022-08-23T01:13:25.358Z,25.80
2022-08-23T01:16:19.338Z,25.70
2022-08-23T01:19:15.395Z,25.70
2022-08-23T01:22:11.103Z,25.60
2022-08-23T01:25:08.526Z,25.60
2022-08-23T01:28:02.538Z,25.60
2022-08-23T01:30:51.721Z,25.50
2022-08-23T01:33:41.321Z,25.50
2022-08-23T01:36:30.174Z,25.50
2022-08-23T01:39:18.776Z,25.30
2022-08-23T01:42:08.982Z,25.30
2022-08-23T01:44:58.545Z,25.30
2022-08-23T01:47:47.477Z,25.20
2022-08-23T01:53:26.157Z,25.10
2022-08-23T01:56:14.977Z,25.10
2022-08-23T01:59:05.191Z,25.10
2022-08-23T02:01:59.037Z,25.00
2022-08-23T02:04:47.856Z,25.00
2022-08-23T02:07:36.374Z,24.90
2022-08-23T02:10:25.859Z,24.90
2022-08-23T02:13:14.948Z,24.90
2022-08-23T02:16:05.747Z,24.90
2022-08-23T02:18:55.215Z,24.80
2022-08-23T02:21:43.928Z,24.80
2022-08-23T02:24:35.071Z,24.80
2022-08-23T02:27:24.793Z,24.70
2022-08-23T02:30:14.689Z,24.70
2022-08-23T02:33:05.630Z,24.70
2022-08-23T02:35:55.543Z,24.60
2022-08-23T02:38:44.156Z,24.60
2022-08-23T02:41:32.695Z,24.60
2022-08-23T02:44:21.869Z,24.60
2022-08-23T02:47:11.916Z,24.60
2022-08-23T02:50:06.786Z,24.60
2022-08-23T02:52:55.903Z,24.50
2022-08-23T02:55:46.544Z,24.50
2022-08-23T02:58:35.156Z,24.50
2022-08-23T03:01:26.603Z,24.40
2022-08-23T03:04:16.756Z,24.40
2022-08-23T03:07:06.903Z,24.30
2022-08-23T03:09:56.574Z,24.20
2022-08-23T03:12:45.295Z,24.10
2022-08-23T03:15:33.972Z,24.00
2022-08-23T03:18:22.552Z,23.80
2022-08-23T03:21:11.343Z,23.70
2022-08-23T03:24:01.678Z,23.60
2022-08-23T03:26:55.816Z,23.40
2022-08-23T03:29:44.571Z,23.30
2022-08-23T03:32:33.418Z,23.20
2022-08-23T03:35:22.305Z,23.10
2022-08-23T03:38:11.522Z,23.00
2022-08-23T03:41:01.468Z,22.80
2022-08-23T03:43:50.549Z,22.70
2022-08-23T03:46:39.926Z,22.70
2022-08-23T03:49:28.548Z,22.60
2022-08-23T03:52:18.688Z,22.50
2022-08-23T03:55:08.794Z,22.50
2022-08-23T03:58:00.869Z,22.40
2022-08-23T04:00:49.637Z,22.40
2022-08-23T04:03:38.462Z,22.30
2022-08-23T04:06:27.559Z,22.30
2022-08-23T04:09:16.577Z,22.30
2022-08-23T04:12:17.289Z,22.30
2022-08-23T04:15:09.604Z,22.30
2022-08-23T04:18:00.585Z,22.30
2022-08-23T04:20:49.441Z,22.40
2022-08-23T04:23:42.442Z,22.40
2022-08-23T04:26:31.683Z,22.50
2022-08-23T04:29:33.645Z,22.50
2022-08-23T04:32:28.135Z,22.50
2022-08-23T04:35:18.955Z,22.50
2022-08-23T04:38:18.138Z,22.50
2022-08-23T04:41:31.824Z,22.50
2022-08-23T04:44:21.296Z,22.50
2022-08-23T04:47:11.719Z,22.50
2022-08-23T04:50:02.745Z,22.50
2022-08-23T04:52:52.441Z,22.50
2022-08-23T04:55:41.729Z,22.50
2022-08-23T04:58:30.886Z,22.50
2022-08-23T05:01:19.503Z,22.40
2022-08-23T05:04:09.013Z,22.40
2022-08-23T05:07:01.205Z,22.40
2022-08-23T05:09:50.054Z,22.40
2022-08-23T05:12:39.376Z,22.40
2022-08-23T05:15:27.957Z,22.40
2022-08-23T05:18:23.571Z,22.40
2022-08-23T05:21:16.557Z,22.40
2022-08-23T05:24:07.248Z,22.40
2022-08-23T05:26:56.593Z,22.40
2022-08-23T05:29:45.495Z,22.40
2022-08-23T05:32:34.078Z,22.50
2022-08-23T05:35:22.684Z,22.50
2022-08-23T05:38:11.559Z,22.50
2022-08-23T05:41:04.127Z,22.60
2022-08-23T05:43:54.914Z,22.70
2022-08-23T05:46:43.557Z,22.90
2022-08-23T05:49:42.698Z,23.10
2022-08-23T05:52:31.234Z,23.40
2022-08-23T05:55:19.929Z,23.80
2022-08-23T05:58:34.969Z,24.10
2022-08-23T06:01:23.543Z,24.60
2022-08-23T06:04:15.671Z,25.00
2022-08-23T06:07:15.313Z,25.30
2022-08-23T06:10:04.214Z,25.70
2022-08-23T06:12:53.847Z,26.00
2022-08-23T06:15:45.684Z,26.20
2022-08-23T06:18:34.203Z,26.30
2022-08-23T06:21:37.023Z,26.30
2022-08-23T06:24:25.700Z,26.30
2022-08-23T06:27:34.512Z,26.20
2022-08-23T06:30:23.032Z,26.10
2022-08-23T06:33:34.092Z,25.90
2022-08-23T06:37:00.902Z,25.80
2022-08-23T06:40:09.282Z,25.80
2022-08-23T06:43:04.489Z,25.80
2022-08-23T06:46:13.680Z,25.90
2022-08-23T06:49:07.526Z,26.00
2022-08-23T06:51:59.954Z,26.20
2022-08-23T06:54:59.134Z,26.40
2022-08-23T06:57:47.655Z,26.70
2022-08-23T07:01:28.932Z,26.90
2022-08-23T07:04:32.164Z,27.20
2022-08-23T07:07:46.636Z,27.60
2022-08-23T07:10:35.803Z,27.80
2022-08-23T07:13:24.525Z,28.00
2022-08-23T07:16:13.332Z,28.10
2022-08-23T07:19:02.121Z,28.30
2022-08-23T07:21:52.251Z,28.40
2022-08-23T07:24:41.831Z,28.60
2022-08-23T07:27:31.397Z,28.80
2022-08-23T07:30:23.725Z,28.90
2022-08-23T07:33:13.229Z,29.00
2022-08-23T07:36:23.297Z,29.10
2022-08-23T07:39:14.379Z,29.10
2022-08-23T07:42:15.933Z,29.30
2022-08-23T07:45:13.919Z,29.20
2022-08-23T07:48:05.797Z,29.10
2022-08-23T07:51:02.552Z,29.20
2022-08-23T07:53:51.902Z,29.20
2022-08-23T07:56:43.666Z,29.30
2022-08-23T07:59:50.665Z,29.40
2022-08-23T08:02:57.946Z,29.30
2022-08-23T08:05:57.406Z,29.70
2022-08-23T08:08:46.379Z,29.70
2022-08-23T08:11:35.781Z,29.80
2022-08-23T08:14:26.822Z,29.80
2022-08-23T08:17:19.069Z,29.80
2022-08-23T08:20:28.231Z,29.80
2022-08-23T08:23:18.715Z,29.90
2022-08-23T08:26:46.900Z,30.00
2022-08-23T08:29:37.312Z,30.20
2022-08-23T08:32:25.833Z,30.20
2022-08-23T08:35:15.356Z,30.30
2022-08-23T08:38:04.327Z,30.40
2022-08-23T08:41:00.954Z,30.40
2022-08-23T08:43:57.535Z,30.40
2022-08-23T08:46:49.787Z,30.40
2022-08-23T08:49:41.330Z,30.40
2022-08-23T08:52:33.833Z,30.50
2022-08-23T08:55:32.854Z,30.50
2022-08-23T08:58:25.213Z,30.70
2022-08-23T09:01:14.058Z,30.80
2022-08-23T09:04:04.806Z,30.90
2022-08-23T09:06:58.931Z,31.00
2022-08-23T09:10:14.629Z,31.00
2022-08-23T09:21:01.898Z,31.50
2022-08-23T09:24:00.274Z,31.70
2022-08-23T09:27:02.043Z,31.80
2022-08-23T09:29:56.736Z,32.00
2022-08-23T09:32:47.038Z,32.10
2022-08-23T09:35:37.046Z,31.90
2022-08-23T09:38:30.026Z,32.20
2022-08-23T09:41:27.587Z,32.30
2022-08-23T09:44:35.667Z,32.40
2022-08-23T09:47:33.376Z,32.50
2022-08-23T09:50:27.048Z,32.50
2022-08-23T09:53:16.765Z,32.70
2022-08-23T09:56:14.451Z,32.70
2022-08-23T09:59:04.237Z,32.80
2022-08-23T10:02:02.832Z,32.80
2022-08-23T10:04:59.817Z,33.00
2022-08-23T10:07:55.687Z,33.10
2022-08-23T10:10:50.133Z,33.20
2022-08-23T10:13:44.662Z,33.20
2022-08-23T10:16:41.123Z,33.20
2022-08-23T10:19:39.858Z,33.20
2022-08-23T10:22:29.732Z,33.40
2022-08-23T10:25:49.685Z,33.40
2022-08-23T10:29:01.216Z,33.60
2022-08-23T10:31:59.392Z,33.70
2022-08-23T10:35:03.414Z,33.70
2022-08-23T10:38:00.652Z,33.80
2022-08-23T10:40:56.163Z,33.90
2022-08-23T10:43:50.352Z,34.10
2022-08-23T10:46:48.977Z,34.30
2022-08-23T10:49:41.459Z,34.30
2022-08-23T10:52:34.376Z,34.30
2022-08-23T10:55:36.946Z,34.30
2022-08-23T10:58:27.178Z,34.30
2022-08-23T11:01:33.025Z,34.30
2022-08-23T11:04:28.185Z,34.30
2022-08-23T11:07:34.170Z,34.40
2022-08-23T11:10:31.093Z,34.50
2022-08-23T11:13:23.794Z,34.60
2022-08-23T11:16:16.060Z,34.60
2022-08-23T11:19:06.968Z,34.60
2022-08-23T11:22:14.572Z,34.60
2022-08-23T11:25:05.968Z,34.70
2022-08-23T11:28:39.681Z,34.90
2022-08-23T11:31:30.890Z,35.10
2022-08-23T11:34:27.273Z,35.20
2022-08-23T11:37:47.295Z,35.20
2022-08-23T11:41:17.975Z,35.20
2022-08-23T11:44:27.693Z,35.20
2022-08-23T11:47:16.573Z,35.20
2022-08-23T11:50:23.186Z,35.30
2022-08-23T11:53:33.392Z,35.40
2022-08-23T11:56:46.321Z,35.30
2022-08-23T12:00:03.094Z,35.40
2022-08-23T12:03:03.047Z,35.40
2022-08-23T12:06:53.028Z,35.60
2022-08-23T12:09:53.998Z,35.70
2022-08-23T12:12:47.169Z,35.80
2022-08-23T12:16:17.021Z,35.70
2022-08-23T12:19:10.288Z,35.60
2022-08-23T12:22:09.011Z,35.60
2022-08-23T12:25:03.326Z,35.50
2022-08-23T12:27:57.750Z,35.50
2022-08-23T12:30:54.467Z,35.50
2022-08-23T12:33:51.243Z,35.40
2022-08-23T12:36:45.131Z,35.50
2022-08-23T12:39:36.401Z,35.50
2022-08-23T12:42:27.877Z,35.70
2022-08-23T12:45:21.413Z,35.80
2022-08-23T12:48:16.718Z,35.90
2022-08-23T12:51:08.934Z,35.90
2022-08-23T12:54:00.156Z,35.90
2022-08-23T12:56:49.924Z,35.80
2022-08-23T12:59:42.161Z,35.80
2022-08-23T13:02:34.244Z,35.90
2022-08-23T13:05:33.530Z,35.90
2022-08-23T13:08:34.352Z,36.10
2022-08-23T13:11:24.790Z,36.10
2022-08-23T13:14:31.061Z,36.20
2022-08-23T13:17:23.753Z,36.10
2022-08-23T13:20:22.035Z,36.10
2022-08-23T13:23:10.525Z,36.10
2022-08-23T13:25:59.082Z,36.10
2022-08-23T13:29:06.666Z,36.10
2022-08-23T13:32:03.297Z,36.10
2022-08-23T13:34:55.167Z,36.20
2022-08-23T13:37:46.817Z,36.30
2022-08-23T13:40:44.446Z,36.40
2022-08-23T13:43:37.211Z,36.40
2022-08-23T13:46:27.204Z,36.40
2022-08-23T13:49:17.668Z,36.40
2022-08-23T13:55:19.652Z,36.20
2022-08-23T13:58:10.956Z,36.10
2022-08-23T14:01:00.583Z,36.10
2022-08-23T14:03:49.333Z,36.10
2022-08-23T14:06:37.948Z,36.20
2022-08-23T14:09:26.384Z,36.20
2022-08-23T14:12:23.349Z,36.30
2022-08-23T14:15:12.431Z,36.40
2022-08-23T14:18:01.368Z,36.20
2022-08-23T14:20:51.391Z,36.20
2022-08-23T14:23:40.050Z,36.10
2022-08-23T14:26:28.533Z,36.10
2022-08-23T14:29:18.415Z,36.10
2022-08-23T14:32:09.857Z,36.20
2022-08-23T14:34:58.396Z,36.20
2022-08-23T14:38:03.740Z,36.30
2022-08-23T14:40:55.056Z,36.20
2022-08-23T14:43:43.476Z,36.10
2022-08-23T14:46:34.026Z,36.00
2022-08-23T14:49:22.533Z,35.90
2022-08-23T14:52:11.339Z,35.80
2022-08-23T14:54:59.823Z,35.70
2022-08-23T14:57:49.010Z,35.70
2022-08-23T15:00:38.902Z,35.60
2022-08-23T15:03:29.339Z,35.70
2022-08-23T15:06:18.655Z,35.70
2022-08-23T15:09:07.075Z,35.70
2022-08-23T15:15:04.934Z,35.90
2022-08-23T15:17:56.084Z,36.10
2022-08-23T15:20:46.337Z,36.10
2022-08-23T15:23:34.700Z,36.10
2022-08-23T15:26:24.751Z,36.20
2022-08-23T15:29:13.232Z,36.10
2022-08-23T15:32:10.129Z,36.10
2022-08-23T15:35:01.218Z,36.00
2022-08-23T15:37:52.448Z,36.00
2022-08-23T15:40:40.911Z,35.90
2022-08-23T15:43:34.238Z,35.90
2022-08-23T15:46:24.022Z,35.90
2022-08-23T15:49:14.081Z,35.80
2022-08-23T15:52:02.789Z,35.70
2022-08-23T15:54:53.775Z,35.60
2022-08-23T15:57:45.224Z,35.50
2022-08-23T16:00:33.651Z,35.40
2022-08-23T16:03:22.768Z,35.30
2022-08-23T16:06:12.180Z,35.20
2022-08-23T16:09:00.562Z,35.20
2022-08-23T16:11:50.752Z,35.10
2022-08-23T16:14:39.183Z,35.00
2022-08-23T16:17:27.661Z,34.90
2022-08-23T16:20:17.109Z,34.90
2022-08-23T16:23:05.556Z,34.90
2022-08-23T16:25:56.876Z,34.80
2022-08-23T16:28:53.608Z,34.80
2022-08-23T16:31:43.003Z,34.80
2022-08-23T16:34:31.560Z,34.80
2022-08-23T16:37:20.784Z,34.90
2022-08-23T16:40:10.946Z,34.90
2022-08-23T16:43:00.291Z,34.90
2022-08-23T16:45:50.827Z,34.90
2022-08-23T16:48:39.333Z,34.90
2022-08-23T16:51:27.910Z,34.90
2022-08-23T16:54:16.335Z,34.90
2022-08-23T16:57:05.257Z,34.90
2022-08-23T16:59:53.812Z,34.90
2022-08-23T17:02:43.871Z,34.80
2022-08-23T17:05:32.590Z,34.70
2022-08-23T17:08:21.149Z,34.70
2022-08-23T17:11:11.675Z,34.70
2022-08-23T17:14:05.241Z,34.70
2022-08-23T17:16:55.045Z,34.70
2022-08-23T17:19:45.074Z,34.70
2022-08-23T17:22:33.497Z,34.70
2022-08-23T17:25:22.049Z,34.70
2022-08-23T17:28:10.641Z,34.70
2022-08-23T17:30:59.288Z,34.60
2022-08-23T17:33:47.962Z,34.60
2022-08-23T17:36:39.458Z,34.50
2022-08-23T17:39:29.303Z,34.40
2022-08-23T17:42:18.108Z,34.30
2022-08-23T17:45:07.680Z,34.10
2022-08-23T17:47:56.215Z,33.90
2022-08-23T17:50:44.721Z,33.60
2022-08-23T17:53:34.977Z,33.40
2022-08-23T17:56:23.502Z,33.10
2022-08-23T17:59:14.482Z,32.90
2022-08-23T18:02:11.240Z,32.70
2022-08-23T18:04:59.706Z,32.40
2022-08-23T18:07:48.293Z,32.30
2022-08-23T18:10:38.240Z,32.00
2022-08-23T18:13:27.495Z,31.80
2022-08-23T18:16:16.005Z,31.60
2022-08-23T18:19:05.358Z,31.40
2022-08-23T18:21:54.580Z,31.20
2022-08-23T18:24:43.016Z,31.10
2022-08-23T18:27:50.438Z,30.80
2022-08-23T18:30:40.435Z,30.60
2022-08-23T18:33:32.253Z,30.40
2022-08-23T18:36:36.123Z,30.20
2022-08-23T18:39:27.629Z,29.90
2022-08-23T18:42:20.578Z,29.80
2022-08-23T18:45:11.341Z,29.50
2022-08-23T18:47:59.955Z,29.40
2022-08-23T18:50:49.665Z,29.30
2022-08-23T18:53:38.425Z,29.10
2022-08-23T18:56:27.797Z,28.90
2022-08-23T18:59:16.223Z,28.80
2022-08-23T19:02:06.445Z,28.70
2022-08-23T19:04:55.908Z,28.60
2022-08-23T19:07:44.363Z,28.40
2022-08-23T19:10:32.962Z,28.30
2022-08-23T19:13:21.413Z,28.20
2022-08-23T19:16:12.588Z,28.10
2022-08-23T19:19:02.631Z,28.00
2022-08-23T19:21:51.099Z,27.90
2022-08-23T19:24:39.888Z,27.70
2022-08-23T19:27:28.374Z,27.60
2022-08-23T19:30:17.515Z,27.60
2022-08-23T19:33:06.575Z,27.50
2022-08-23T19:35:58.043Z,27.30
2022-08-23T19:38:46.694Z,27.30
2022-08-23T19:41:35.184Z,27.20
2022-08-23T19:44:23.684Z,27.20
2022-08-23T19:47:13.398Z,27.20
2022-08-23T19:50:09.469Z,27.20
2022-08-23T19:52:59.335Z,27.30
2022-08-23T19:55:48.587Z,27.30
2022-08-23T19:58:37.836Z,27.40
2022-08-23T20:01:26.183Z,27.60
2022-08-23T20:04:14.548Z,27.70
2022-08-23T20:07:03.682Z,27.60
2022-08-23T20:09:53.741Z,27.70
2022-08-23T20:12:42.639Z,27.70
2022-08-23T20:15:31.055Z,27.70
2022-08-23T20:18:19.972Z,27.60
2022-08-23T20:21:08.351Z,27.60
2022-08-23T20:24:01.785Z,27.60
2022-08-23T20:26:52.273Z,27.60
2022-08-23T20:29:40.885Z,27.60
2022-08-23T20:32:29.745Z,27.60
2022-08-23T20:35:18.364Z,27.60
2022-08-23T20:38:07.003Z,27.70
2022-08-23T20:40:55.460Z,27.70
2022-08-23T20:43:47.676Z,27.60
2022-08-23T20:46:36.304Z,27.70
2022-08-23T20:49:24.881Z,27.60
2022-08-23T20:52:13.333Z,27.60
2022-08-23T20:55:01.957Z,27.60
2022-08-23T20:57:50.356Z,27.60
2022-08-23T21:00:40.153Z,27.60
2022-08-23T21:03:29.863Z,27.60
2022-08-23T21:06:20.161Z,27.60
2022-08-23T21:09:10.517Z,27.60
2022-08-23T21:11:59.085Z,27.60
2022-08-23T21:14:47.562Z,27.50
2022-08-23T21:17:37.437Z,27.50
2022-08-23T21:20:25.836Z,27.50
2022-08-23T21:23:14.250Z,27.50
2022-08-23T21:26:02.665Z,27.40
2022-08-23T21:28:51.213Z,27.40
2022-08-23T21:31:39.747Z,27.40
2022-08-23T21:34:29.577Z,27.40
2022-08-23T21:37:17.948Z,27.40
2022-08-23T21:40:08.111Z,27.40
2022-08-23T21:42:56.635Z,27.30
2022-08-23T21:45:45.130Z,27.40
2022-08-23T21:48:33.716Z,27.30
2022-08-23T21:51:23.499Z,27.30
2022-08-23T21:54:12.777Z,27.30
2022-08-23T21:57:01.257Z,27.30
2022-08-23T21:59:49.752Z,27.30
2022-08-23T22:02:38.189Z,27.30
2022-08-23T22:05:26.910Z,27.30
2022-08-23T22:08:17.041Z,27.20
2022-08-23T22:11:07.189Z,27.20
2022-08-23T22:13:55.951Z,27.20
2022-08-23T22:16:44.542Z,27.20
2022-08-23T22:19:33.062Z,27.20
2022-08-23T22:22:21.480Z,27.10
2022-08-23T22:25:12.561Z,27.20
2022-08-23T22:28:01.061Z,27.10
2022-08-23T22:30:49.474Z,27.10
2022-08-23T22:33:37.880Z,27.10
2022-08-23T22:36:26.874Z,27.10
2022-08-23T22:39:15.251Z,27.10
2022-08-23T22:42:05.458Z,27.20
2022-08-23T22:44:58.532Z,27.10
2022-08-23T22:47:46.940Z,27.10
2022-08-23T22:50:35.408Z,27.20
2022-08-23T22:53:23.809Z,27.20
2022-08-23T22:56:12.725Z,27.20
2022-08-23T22:59:02.552Z,27.20
2022-08-23T23:01:53.287Z,27.30
2022-08-23T23:04:42.176Z,27.30
2022-08-23T23:07:48.161Z,27.20
2022-08-23T23:10:36.719Z,27.10
2022-08-23T23:13:25.690Z,27.10
2022-08-23T23:16:18.714Z,27.10
2022-08-23T23:19:24.964Z,27.10
2022-08-23T23:22:14.192Z,27.20
2022-08-23T23:25:02.835Z,27.10
2022-08-23T23:27:51.410Z,27.10
2022-08-23T23:30:40.067Z,27.00
2022-08-23T23:33:29.998Z,27.00
2022-08-23T23:36:18.477Z,27.00
2022-08-23T23:39:07.293Z,26.90
2022-08-23T23:41:55.724Z,26.90
2022-08-23T23:44:44.160Z,26.90
2022-08-23T23:47:32.556Z,26.80
2022-08-23T23:50:22.664Z,26.90
2022-08-23T23:53:11.158Z,26.80
2022-08-23T23:56:03.021Z,26.80
2022-08-23T23:58:52.699Z,26.80
